Time;durP1;ratioP1;P1;durP2;ratioP2;P2;SDS_P1;SDS_P2;PMS_P1;PMS_P2;Temp;Humidity;BMP_temperature;BMP_pressure;BME280_temperature;BME280_humidity;BME280_pressure;Samples;Min_cycle;Max_cycle;Signal;HPM_P1;HPM_P2
2021/12/16 00:02:31;;;;;;;80.03;44.47;;;;;;;;;;5073729;28;20040;-60
2021/12/16 00:07:39;;;;;;;83.28;45.85;;;;;;;;;;5072494;28;20047;-60
2021/12/16 00:10:21;;;;;;;79.03;44.03;;;;;;;;;;5072423;28;20037;-66
2021/12/16 00:33:11;;;;;;;77.85;43.50;;;;;;;;;;5073678;28;20083;-67
2021/12/16 00:34:49;;;;;;;79.65;43.08;;;;;;;;;;5057949;28;20037;-66
2021/12/16 00:37:16;;;;;;;74.63;42.65;;;;;;;;;;5072372;28;20071;-67
2021/12/16 00:39:44;;;;;;;75.32;42.97;;;;;;;;;;5072013;28;20150;-67
2021/12/16 00:42:20;;;;;;;79.82;43.53;;;;;;;;;;5073432;28;20039;-67
2021/12/16 00:45:07;;;;;;;75.22;43.17;;;;;;;;;;5072220;28;20132;-67
2021/12/16 00:47:46;;;;;;;75.60;42.17;;;;;;;;;;5072257;28;20041;-68
2021/12/16 00:54:09;;;;;;;79.70;41.15;;;;;;;;;;5073428;28;20063;-68
2021/12/16 00:55:55;;;;;;;71.47;39.80;;;;;;;;;;5071883;28;20056;-67
2021/12/16 00:58:25;;;;;;;76.63;41.53;;;;;;;;;;5072081;28;20052;-66
2021/12/16 01:00:59;;;;;;;74.33;41.53;;;;;;;;;;5072062;28;20449;-66
2021/12/16 01:03:40;;;;;;;78.15;42.15;;;;;;;;;;5071789;28;20671;-66
2021/12/16 01:06:35;;;;;;;74.35;41.35;;;;;;;;;;5073570;28;20036;-66
2021/12/16 01:34:29;;;;;;;79.95;45.40;;;;;;;;;;5075857;28;20051;-60
2021/12/16 01:47:24;;;;;;;69.75;37.42;;;;;;;;;;5075550;28;20135;-60
2021/12/16 01:57:28;;;;;;;68.68;37.85;;;;;;;;;;5074891;28;20025;-60
2021/12/16 02:00:05;;;;;;;68.18;37.33;;;;;;;;;;5074882;28;20387;-60
2021/12/16 02:02:46;;;;;;;69.25;37.67;;;;;;;;;;5076145;28;20115;-60
2021/12/16 02:10:39;;;;;;;66.68;38.42;;;;;;;;;;5074775;28;20495;-59
2021/12/16 02:36:52;;;;;;;67.35;38.13;;;;;;;;;;5074111;28;20562;-66
2021/12/16 02:39:23;;;;;;;67.88;38.22;;;;;;;;;;5075454;28;20020;-60
2021/12/16 02:41:54;;;;;;;68.40;37.55;;;;;;;;;;5074281;28;20139;-60
2021/12/16 02:49:54;;;;;;;69.78;37.50;;;;;;;;;;5075429;28;20037;-60
2021/12/16 02:52:21;;;;;;;72.50;39.08;;;;;;;;;;5057575;28;20075;-60
2021/12/16 02:54:47;;;;;;;70.82;38.35;;;;;;;;;;5075589;28;20044;-60
2021/12/16 02:57:13;;;;;;;64.90;37.65;;;;;;;;;;5073466;28;20074;-60
2021/12/16 02:59:39;;;;;;;69.43;37.92;;;;;;;;;;5074224;28;20028;-60
2021/12/16 03:02:09;;;;;;;70.65;40.50;;;;;;;;;;5074019;28;20086;-60
2021/12/16 03:04:39;;;;;;;72.65;40.80;;;;;;;;;;5073848;28;20166;-60
2021/12/16 03:07:05;;;;;;;76.47;40.90;;;;;;;;;;5074880;28;20110;-59
2021/12/16 03:10:36;;;;;;;71.53;40.92;;;;;;;;;;5073446;28;20443;-59
2021/12/16 03:15:26;;;;;;;68.15;37.58;;;;;;;;;;5074751;28;20386;-60
2021/12/16 03:18:03;;;;;;;68.13;36.65;;;;;;;;;;5075019;28;20059;-60
2021/12/16 03:20:46;;;;;;;62.60;35.33;;;;;;;;;;5074637;28;20581;-66
2021/12/16 03:28:34;;;;;;;55.58;31.05;;;;;;;;;;5073324;28;20044;-59
2021/12/16 03:38:50;;;;;;;60.97;31.67;;;;;;;;;;5074249;28;20115;-60
2021/12/16 03:41:16;;;;;;;54.78;31.02;;;;;;;;;;5074078;28;20383;-60
2021/12/16 03:43:42;;;;;;;57.50;32.00;;;;;;;;;;5072970;28;20131;-60
2021/12/16 03:48:44;;;;;;;55.95;30.42;;;;;;;;;;5072945;28;20418;-59
2021/12/16 03:51:17;;;;;;;53.50;30.48;;;;;;;;;;5072875;28;20383;-60
2021/12/16 03:53:44;;;;;;;52.15;29.30;;;;;;;;;;5072634;28;20064;-66
2021/12/16 03:56:14;;;;;;;52.28;29.90;;;;;;;;;;5072841;28;20044;-60
2021/12/16 03:59:01;;;;;;;50.85;29.65;;;;;;;;;;5072917;28;20427;-60
2021/12/16 04:01:35;;;;;;;53.53;29.50;;;;;;;;;;5073127;28;20047;-60
2021/12/16 04:04:00;;;;;;;52.30;29.48;;;;;;;;;;5072500;28;20032;-60
2021/12/16 04:06:28;;;;;;;49.42;28.48;;;;;;;;;;5072612;28;20036;-60
2021/12/16 04:08:54;;;;;;;47.97;27.92;;;;;;;;;;5072678;28;20039;-60
2021/12/16 04:11:24;;;;;;;53.05;30.63;;;;;;;;;;5072695;28;20029;-60
2021/12/16 04:14:03;;;;;;;50.17;29.20;;;;;;;;;;5072416;28;20051;-59
2021/12/16 04:16:36;;;;;;;53.40;30.33;;;;;;;;;;5072372;28;20181;-60
2021/12/16 04:19:09;;;;;;;51.78;28.55;;;;;;;;;;5072524;28;20036;-60
2021/12/16 04:21:37;;;;;;;52.40;29.73;;;;;;;;;;5073578;28;20036;-60
2021/12/16 04:24:02;;;;;;;52.90;30.70;;;;;;;;;;5072452;28;20074;-60
2021/12/16 04:26:28;;;;;;;52.95;30.40;;;;;;;;;;5072081;28;20474;-60
2021/12/16 04:28:54;;;;;;;48.05;28.25;;;;;;;;;;5055649;28;20494;-60
2021/12/16 04:31:21;;;;;;;52.50;29.95;;;;;;;;;;5072276;28;20041;-65
2021/12/16 04:33:49;;;;;;;48.42;28.95;;;;;;;;;;5072244;28;20029;-67
2021/12/16 04:36:15;;;;;;;51.25;28.98;;;;;;;;;;5071730;28;20060;-66
2021/12/16 04:38:42;;;;;;;46.50;28.58;;;;;;;;;;5073535;28;20022;-66
2021/12/16 04:41:11;;;;;;;50.95;30.02;;;;;;;;;;5072421;28;20388;-66
2021/12/16 04:43:40;;;;;;;49.05;29.30;;;;;;;;;;5071974;28;20119;-66
2021/12/16 04:46:07;;;;;;;;;;;;;;;;;;5072207;28;20063;-66
2021/12/16 04:48:34;;;;;;;46.88;26.75;;;;;;;;;;5071930;28;19939;-66
2021/12/16 04:51:02;;;;;;;47.40;27.13;;;;;;;;;;5072009;28;20048;-67
2021/12/16 04:53:28;;;;;;;47.88;27.75;;;;;;;;;;5071917;28;20540;-67
2021/12/16 04:55:54;;;;;;;46.33;27.00;;;;;;;;;;5072099;28;20029;-66
2021/12/16 04:58:22;;;;;;;44.20;27.40;;;;;;;;;;5072064;28;20025;-67
2021/12/16 05:00:48;;;;;;;44.05;26.45;;;;;;;;;;5055297;28;20032;-66
2021/12/16 05:03:26;;;;;;;42.50;26.65;;;;;;;;;;5071740;28;20028;-66
2021/12/16 05:05:52;;;;;;;43.67;26.42;;;;;;;;;;5071710;28;20491;-67
2021/12/16 05:08:17;;;;;;;47.03;26.77;;;;;;;;;;5072576;28;20036;-67
2021/12/16 05:10:53;;;;;;;47.42;26.40;;;;;;;;;;5071653;28;20040;-66
2021/12/16 05:13:22;;;;;;;43.33;25.15;;;;;;;;;;5071460;28;20041;-66
2021/12/16 05:15:47;;;;;;;45.17;24.85;;;;;;;;;;5055050;28;20029;-66
2021/12/16 05:18:19;;;;;;;40.83;23.25;;;;;;;;;;5073040;28;20479;-67
2021/12/16 05:20:50;;;;;;;42.72;23.50;;;;;;;;;;5071802;28;20127;-68
2021/12/16 05:28:43;;;;;;;34.85;21.90;;;;;;;;;;5071660;28;20044;-67
2021/12/16 05:31:09;;;;;;;32.92;20.92;;;;;;;;;;5070996;28;20045;-67
2021/12/16 05:33:40;;;;;;;32.75;19.38;;;;;;;;;;5071426;28;20032;-65
2021/12/16 05:36:05;;;;;;;37.13;21.63;;;;;;;;;;5070799;28;20509;-67
2021/12/16 05:38:31;;;;;;;30.88;20.17;;;;;;;;;;5072164;28;20031;-67
2021/12/16 05:41:00;;;;;;;35.15;21.30;;;;;;;;;;5071426;28;20061;-67
2021/12/16 05:43:31;;;;;;;35.35;20.38;;;;;;;;;;5071356;28;20029;-67
2021/12/16 05:45:58;;;;;;;33.50;21.10;;;;;;;;;;5071132;28;20398;-67
2021/12/16 05:48:25;;;;;;;31.50;19.67;;;;;;;;;;5071035;28;20099;-66
2021/12/16 05:50:54;;;;;;;30.58;19.52;;;;;;;;;;5071313;28;20044;-67
2021/12/16 05:53:20;;;;;;;31.60;20.67;;;;;;;;;;5071199;28;20032;-65
2021/12/16 05:55:47;;;;;;;32.80;19.20;;;;;;;;;;5071671;28;20043;-66
2021/12/16 05:58:37;;;;;;;24.30;15.70;;;;;;;;;;5072034;28;20035;-66
2021/12/16 06:01:05;;;;;;;24.98;16.45;;;;;;;;;;5073788;28;20449;-66
2021/12/16 06:03:32;;;;;;;30.38;18.38;;;;;;;;;;5074643;28;20086;-68
2021/12/16 06:05:58;;;;;;;30.17;18.65;;;;;;;;;;5074981;28;20077;-67
2021/12/16 06:08:24;;;;;;;27.83;19.38;;;;;;;;;;5074128;28;20463;-66
2021/12/16 06:13:33;;;;;;;27.05;18.42;;;;;;;;;;5076139;28;20036;-66
2021/12/16 06:29:26;;;;;;;24.13;15.15;;;;;;;;;;5075835;28;20062;-66
2021/12/16 06:31:52;;;;;;;20.73;14.95;;;;;;;;;;5074347;28;20417;-66
2021/12/16 06:34:18;;;;;;;25.52;16.60;;;;;;;;;;5075504;28;20029;-66
2021/12/16 06:36:43;;;;;;;23.10;15.95;;;;;;;;;;5074926;28;20079;-66
2021/12/16 06:39:09;;;;;;;23.30;16.38;;;;;;;;;;5074105;28;20037;-66
2021/12/16 06:41:42;;;;;;;20.10;14.45;;;;;;;;;;5074202;28;20063;-66
2021/12/16 06:44:33;;;;;;;17.67;12.63;;;;;;;;;;5074014;28;20131;-66
2021/12/16 06:47:05;;;;;;;19.45;13.82;;;;;;;;;;5074041;28;20040;-66
2021/12/16 06:49:32;;;;;;;20.75;15.13;;;;;;;;;;5075039;28;20044;-66
2021/12/16 06:52:02;;;;;;;18.65;13.77;;;;;;;;;;5075118;28;20112;-66
2021/12/16 06:54:34;;;;;;;20.33;13.70;;;;;;;;;;5075135;28;20111;-66
2021/12/16 06:59:32;;;;;;;16.40;12.07;;;;;;;;;;5075086;28;20044;-66
2021/12/16 07:04:33;;;;;;;20.02;14.05;;;;;;;;;;5074851;28;20037;-66
2021/12/16 07:06:59;;;;;;;25.80;17.40;;;;;;;;;;5074633;28;20062;-66
2021/12/16 07:09:25;;;;;;;24.60;17.58;;;;;;;;;;5074600;28;20036;-66
2021/12/16 07:11:53;;;;;;;27.25;17.90;;;;;;;;;;5073517;28;20108;-66
2021/12/16 07:14:19;;;;;;;30.17;19.85;;;;;;;;;;5074807;28;20032;-66
2021/12/16 07:16:50;;;;;;;24.50;16.73;;;;;;;;;;5073277;28;20475;-66
2021/12/16 07:19:15;;;;;;;24.88;16.77;;;;;;;;;;5074645;28;20036;-66
2021/12/16 07:21:41;;;;;;;27.17;18.02;;;;;;;;;;5074612;28;20025;-66
2021/12/16 07:24:08;;;;;;;30.35;20.33;;;;;;;;;;5074525;28;20036;-66
2021/12/16 07:26:34;;;;;;;28.85;19.08;;;;;;;;;;5073991;28;20039;-66
2021/12/16 07:28:59;;;;;;;30.45;21.42;;;;;;;;;;5074316;28;20390;-66
2021/12/16 07:31:27;;;;;;;32.83;21.70;;;;;;;;;;5072862;28;20041;-66
2021/12/16 07:33:53;;;;;;;29.98;19.15;;;;;;;;;;5074258;28;20032;-67
2021/12/16 07:36:19;;;;;;;24.95;16.33;;;;;;;;;;5074197;28;20559;-66
2021/12/16 07:38:45;;;;;;;32.53;20.90;;;;;;;;;;5072905;28;20490;-66
2021/12/16 07:41:10;;;;;;;33.10;21.98;;;;;;;;;;5074086;28;20600;-66
2021/12/16 07:46:20;;;;;;;31.23;21.05;;;;;;;;;;5074151;28;20494;-66
2021/12/16 07:48:45;;;;;;;24.80;15.80;;;;;;;;;;5073844;28;20119;-66
2021/12/16 07:51:11;;;;;;;26.30;17.30;;;;;;;;;;5073723;28;20040;-66
2021/12/16 07:53:37;;;;;;;21.33;15.38;;;;;;;;;;5073746;28;20024;-67
2021/12/16 07:56:03;;;;;;;22.98;15.15;;;;;;;;;;5073716;28;20394;-67
2021/12/16 07:58:29;;;;;;;26.40;17.98;;;;;;;;;;5073661;28;20028;-67
2021/12/16 08:00:56;;;;;;;28.40;19.83;;;;;;;;;;5072451;28;20041;-67
2021/12/16 08:03:22;;;;;;;23.80;16.38;;;;;;;;;;5073689;28;20070;-67
2021/12/16 08:05:53;;;;;;;24.85;16.58;;;;;;;;;;5073809;28;20467;-67
2021/12/16 08:08:19;;;;;;;27.45;16.88;;;;;;;;;;5073704;28;20037;-67
2021/12/16 08:10:44;;;;;;;27.63;18.17;;;;;;;;;;5073679;28;20024;-67
2021/12/16 08:13:10;;;;;;;29.73;16.42;;;;;;;;;;5073557;28;20143;-67
2021/12/16 08:15:36;;;;;;;35.92;20.92;;;;;;;;;;5073346;28;20032;-68
2021/12/16 08:18:01;;;;;;;28.55;18.65;;;;;;;;;;5073537;28;20040;-67
2021/12/16 08:20:27;;;;;;;29.52;16.35;;;;;;;;;;5072339;28;20029;-67
2021/12/16 08:22:56;;;;;;;23.63;14.77;;;;;;;;;;5073066;28;20123;-67
2021/12/16 08:25:22;;;;;;;27.42;17.88;;;;;;;;;;5073018;28;20056;-67
2021/12/16 08:27:48;;;;;;;26.58;16.02;;;;;;;;;;5072194;28;20465;-67
2021/12/16 08:30:16;;;;;;;33.55;20.63;;;;;;;;;;5073370;28;20041;-68
2021/12/16 08:32:43;;;;;;;27.13;17.67;;;;;;;;;;5073317;28;20462;-68
2021/12/16 08:35:14;;;;;;;25.00;15.25;;;;;;;;;;5073248;28;20024;-67
2021/12/16 08:37:40;;;;;;;31.08;19.23;;;;;;;;;;5073135;28;20570;-67
2021/12/16 08:40:09;;;;;;;27.10;15.73;;;;;;;;;;5073252;28;20056;-67
2021/12/16 08:42:34;;;;;;;28.40;16.92;;;;;;;;;;5072004;28;20111;-68
2021/12/16 08:44:59;;;;;;;22.73;14.55;;;;;;;;;;5073227;28;20023;-68
2021/12/16 08:47:25;;;;;;;27.75;17.75;;;;;;;;;;5072102;28;20402;-68
2021/12/16 08:49:50;;;;;;;34.72;20.40;;;;;;;;;;5072999;28;20032;-68
2021/12/16 08:52:18;;;;;;;28.73;18.88;;;;;;;;;;5073092;28;20033;-68
2021/12/16 08:54:44;;;;;;;25.42;17.58;;;;;;;;;;5073215;28;20028;-68
2021/12/16 08:57:11;;;;;;;26.73;16.65;;;;;;;;;;5071918;28;20501;-68
2021/12/16 08:59:37;;;;;;;29.50;18.73;;;;;;;;;;5073070;28;20025;-69
2021/12/16 09:02:03;;;;;;;26.15;16.92;;;;;;;;;;5073029;28;20090;-68
2021/12/16 09:04:29;;;;;;;24.30;16.65;;;;;;;;;;5073024;28;20481;-67
2021/12/16 09:06:56;;;;;;;28.17;20.35;;;;;;;;;;5073072;28;20071;-69
2021/12/16 09:09:22;;;;;;;25.85;16.88;;;;;;;;;;5071496;28;20043;-69
2021/12/16 09:14:51;;;;;;;28.13;17.35;;;;;;;;;;5011147;28;20042;-69
2021/12/16 09:17:17;;;;;;;25.17;16.55;;;;;;;;;;4994667;28;20173;-69
2021/12/16 09:19:44;;;;;;;30.02;20.40;;;;;;;;;;5027703;28;20072;-68
2021/12/16 09:22:10;;;;;;;31.58;20.33;;;;;;;;;;5071273;28;20481;-68
2021/12/16 09:24:37;;;;;;;29.55;20.27;;;;;;;;;;5072813;28;20090;-69
2021/12/16 09:27:03;;;;;;;27.50;17.38;;;;;;;;;;5072604;28;20129;-69
2021/12/16 09:29:28;;;;;;;29.50;19.98;;;;;;;;;;5072703;28;20067;-69
2021/12/16 09:31:54;;;;;;;26.65;19.60;;;;;;;;;;5071289;28;20394;-69
2021/12/16 09:34:19;;;;;;;28.30;19.02;;;;;;;;;;5072721;28;20052;-69
2021/12/16 09:36:47;;;;;;;22.77;15.55;;;;;;;;;;5076389;28;20063;-69
2021/12/16 09:39:14;;;;;;;25.20;16.90;;;;;;;;;;5075227;28;20040;-68
2021/12/16 09:41:45;;;;;;;28.60;18.42;;;;;;;;;;5076274;28;20051;-68
2021/12/16 09:44:12;;;;;;;22.77;15.15;;;;;;;;;;5076461;28;20045;-69
2021/12/16 09:46:38;;;;;;;18.88;13.55;;;;;;;;;;5074977;28;20037;-68
2021/12/16 09:49:03;;;;;;;22.45;14.23;;;;;;;;;;5075015;28;20048;-68
2021/12/16 09:51:30;;;;;;;19.58;13.25;;;;;;;;;;5074970;28;20037;-68
2021/12/16 09:53:58;;;;;;;19.35;13.13;;;;;;;;;;5076237;28;20406;-68
2021/12/16 09:56:24;;;;;;;23.67;17.00;;;;;;;;;;5076331;28;20045;-68
2021/12/16 09:58:51;;;;;;;22.35;15.20;;;;;;;;;;5074855;28;20036;-68
2021/12/16 10:01:17;;;;;;;23.17;16.83;;;;;;;;;;5075998;28;20060;-68
2021/12/16 10:03:44;;;;;;;20.17;14.77;;;;;;;;;;5074729;28;20086;-67
2021/12/16 10:06:10;;;;;;;19.65;13.50;;;;;;;;;;5075947;28;20032;-67
2021/12/16 10:08:36;;;;;;;24.67;16.08;;;;;;;;;;5074807;28;20045;-68
2021/12/16 10:11:02;;;;;;;20.77;14.27;;;;;;;;;;5075933;28;20079;-67
2021/12/16 10:19:03;;;;;;;20.17;14.90;;;;;;;;;;5075897;28;20040;-69
2021/12/16 10:21:30;;;;;;;25.80;16.83;;;;;;;;;;5074498;28;20181;-76
2021/12/16 10:23:56;;;;;;;18.65;13.95;;;;;;;;;;5074276;28;20056;-68
2021/12/16 10:26:22;;;;;;;18.35;12.07;;;;;;;;;;5074967;28;20521;-68
2021/12/16 10:28:50;;;;;;;18.38;13.30;;;;;;;;;;5074303;28;20406;-66
2021/12/16 10:31:21;;;;;;;21.27;13.35;;;;;;;;;;5075439;28;20040;-66
2021/12/16 10:33:49;;;;;;;18.25;13.43;;;;;;;;;;5075542;28;20161;-66
2021/12/16 10:36:14;;;;;;;15.75;11.73;;;;;;;;;;5075425;28;20024;-67
2021/12/16 10:38:55;;;;;;;14.98;11.68;;;;;;;;;;5075488;28;20028;-66
2021/12/16 10:41:41;;;;;;;18.20;13.55;;;;;;;;;;5075383;28;20469;-67
2021/12/16 10:44:09;;;;;;;17.27;11.98;;;;;;;;;;5064635;28;20078;-72
2021/12/16 10:46:37;;;;;;;20.88;15.45;;;;;;;;;;5073624;28;20028;-66
2021/12/16 10:49:05;;;;;;;18.25;12.98;;;;;;;;;;5075274;28;20044;-67
2021/12/16 10:51:32;;;;;;;18.35;12.13;;;;;;;;;;5075115;28;20470;-67
2021/12/16 10:54:10;;;;;;;22.02;15.00;;;;;;;;;;5075095;28;20044;-66
2021/12/16 10:56:41;;;;;;;21.77;14.68;;;;;;;;;;5075163;28;20032;-68
2021/12/16 10:59:06;;;;;;;;;;;;;;;;;;5075458;28;20036;-67
2021/12/16 11:01:45;;;;;;;18.35;12.20;;;;;;;;;;5075042;28;20270;-68
2021/12/16 11:04:17;;;;;;;14.15;10.82;;;;;;;;;;5074976;28;20035;-68
2021/12/16 11:06:45;;;;;;;13.10;9.55;;;;;;;;;;5074843;28;20517;-68
2021/12/16 11:09:22;;;;;;;13.93;10.27;;;;;;;;;;5074891;28;20044;-69
2021/12/16 11:11:48;;;;;;;16.23;11.45;;;;;;;;;;5074232;28;20036;-68
2021/12/16 11:14:23;;;;;;;13.45;10.90;;;;;;;;;;5074710;28;20039;-68
2021/12/16 11:16:58;;;;;;;14.43;10.82;;;;;;;;;;5074631;28;20033;-67
2021/12/16 11:19:50;;;;;;;13.20;10.27;;;;;;;;;;5074591;28;20037;-67
2021/12/16 11:22:17;;;;;;;16.08;11.88;;;;;;;;;;5071579;28;20036;-67
2021/12/16 11:24:42;;;;;;;14.00;10.48;;;;;;;;;;5074437;28;20429;-67
2021/12/16 11:27:22;;;;;;;15.88;11.02;;;;;;;;;;5074337;28;20036;-67
2021/12/16 11:29:47;;;;;;;13.48;9.98;;;;;;;;;;5073062;28;20196;-66
2021/12/16 11:32:31;;;;;;;11.55;9.07;;;;;;;;;;5074291;28;20064;-67
2021/12/16 11:34:57;;;;;;;12.57;8.73;;;;;;;;;;5074165;28;20032;-66
2021/12/16 11:37:24;;;;;;;12.13;9.43;;;;;;;;;;5073953;28;20016;-67
2021/12/16 11:39:50;;;;;;;10.02;8.68;;;;;;;;;;5074194;28;20051;-67
2021/12/16 11:42:15;;;;;;;13.65;9.70;;;;;;;;;;5074189;28;20033;-66
2021/12/16 11:44:42;;;;;;;11.45;9.02;;;;;;;;;;5072799;28;20549;-66
2021/12/16 11:47:07;;;;;;;10.50;7.63;;;;;;;;;;5074158;28;20406;-67
2021/12/16 11:49:33;;;;;;;14.45;10.20;;;;;;;;;;5073901;28;20040;-67
2021/12/16 11:52:10;;;;;;;11.35;9.30;;;;;;;;;;5072668;28;20024;-66
2021/12/16 11:54:36;;;;;;;12.18;9.52;;;;;;;;;;5073785;28;20035;-66
2021/12/16 11:57:14;;;;;;;9.00;7.20;;;;;;;;;;5073750;28;20029;-66
2021/12/16 11:59:46;;;;;;;9.20;6.88;;;;;;;;;;5072288;28;20044;-67
2021/12/16 12:02:32;;;;;;;10.07;7.70;;;;;;;;;;5073786;28;20043;-67
2021/12/16 12:05:19;;;;;;;16.35;10.55;;;;;;;;;;5073753;28;20048;-67
2021/12/16 12:07:49;;;;;;;16.85;10.50;;;;;;;;;;5073260;28;20142;-67
2021/12/16 12:10:22;;;;;;;;;;;;;;;;;;5074109;28;20044;-67
2021/12/16 12:12:48;;;;;;;13.88;9.52;;;;;;;;;;5073661;28;20004;-67
2021/12/16 12:15:15;;;;;;;12.50;9.93;;;;;;;;;;5073639;28;20028;-66
2021/12/16 12:17:48;;;;;;;12.20;9.57;;;;;;;;;;5073528;28;20056;-67
2021/12/16 12:20:14;;;;;;;12.18;9.90;;;;;;;;;;5073643;28;20067;-67
2021/12/16 12:22:39;;;;;;;9.18;7.57;;;;;;;;;;5072411;28;20470;-67
2021/12/16 12:25:05;;;;;;;8.65;7.13;;;;;;;;;;5071861;28;20040;-67
2021/12/16 12:27:31;;;;;;;11.63;9.73;;;;;;;;;;5073471;28;20074;-67
2021/12/16 12:29:58;;;;;;;9.10;6.40;;;;;;;;;;5071940;28;20041;-67
2021/12/16 12:32:28;;;;;;;8.55;7.55;;;;;;;;;;5073227;28;20032;-67
2021/12/16 12:34:59;;;;;;;6.22;5.70;;;;;;;;;;5073217;28;20032;-66
2021/12/16 12:37:26;;;;;;;7.18;6.38;;;;;;;;;;5071967;28;20390;-66
2021/12/16 12:39:55;;;;;;;8.40;6.85;;;;;;;;;;5073158;28;20436;-66
2021/12/16 12:42:21;;;;;;;7.60;6.70;;;;;;;;;;5073075;28;20043;-67
2021/12/16 12:44:47;;;;;;;8.40;7.10;;;;;;;;;;5071954;28;20398;-67
2021/12/16 12:47:14;;;;;;;7.28;6.32;;;;;;;;;;5073235;28;20032;-66
2021/12/16 12:49:40;;;;;;;7.38;6.55;;;;;;;;;;5071839;28;20119;-67
2021/12/16 12:52:09;;;;;;;6.25;5.65;;;;;;;;;;5073218;28;20128;-66
2021/12/16 12:54:35;;;;;;;8.27;5.80;;;;;;;;;;5073096;28;20470;-66
2021/12/16 12:57:17;;;;;;;5.85;5.30;;;;;;;;;;5073008;28;20071;-66
2021/12/16 12:59:42;;;;;;;5.40;4.90;;;;;;;;;;5072014;28;20062;-67
2021/12/16 13:02:16;;;;;;;5.97;5.18;;;;;;;;;;5072660;28;20463;-67
2021/12/16 13:04:45;;;;;;;6.00;5.15;;;;;;;;;;5071662;28;20483;-67
2021/12/16 13:07:12;;;;;;;6.43;5.32;;;;;;;;;;5072985;28;20021;-67
2021/12/16 13:09:49;;;;;;;5.72;5.20;;;;;;;;;;5073678;28;20040;-67
2021/12/16 13:12:31;;;;;;;5.43;4.93;;;;;;;;;;5075797;28;20036;-67
2021/12/16 13:15:07;;;;;;;4.68;4.25;;;;;;;;;;5077166;28;20036;-67
2021/12/16 13:23:30;;;;;;;4.97;4.47;;;;;;;;;;5075574;28;20398;-67
2021/12/16 13:26:33;;;;;;;6.22;5.13;;;;;;;;;;5075187;28;20508;-67
2021/12/16 13:34:51;;;;;;;5.32;4.70;;;;;;;;;;5076602;28;20079;-67
2021/12/16 13:37:31;;;;;;;5.32;4.85;;;;;;;;;;5076569;28;20029;-67
2021/12/16 13:39:58;;;;;;;4.32;3.90;;;;;;;;;;5076555;28;20123;-67
2021/12/16 13:42:24;;;;;;;6.47;4.75;;;;;;;;;;5076460;28;20386;-67
2021/12/16 13:44:59;;;;;;;6.80;4.88;;;;;;;;;;5076476;28;20071;-67
2021/12/16 13:47:37;;;;;;;4.20;3.85;;;;;;;;;;5075281;28;20068;-67
2021/12/16 14:01:55;;;;;;;5.18;4.13;;;;;;;;;;5076059;28;20098;-67
2021/12/16 14:04:53;;;;;;;4.50;4.13;;;;;;;;;;5075789;28;20123;-67
2021/12/16 14:10:12;;;;;;;4.57;4.15;;;;;;;;;;5075895;28;20040;-67
2021/12/16 14:13:47;;;;;;;4.35;3.95;;;;;;;;;;5076346;28;20041;-67
2021/12/16 14:15:54;;;;;;;5.53;3.65;;;;;;;;;;5074717;28;20568;-67
2021/12/16 14:22:57;;;;;;;6.05;5.28;;;;;;;;;;5075807;28;20503;-67
2021/12/16 14:24:18;;;;;;;6.03;4.80;;;;;;;;;;5075705;28;20040;-66
2021/12/16 14:26:50;;;;;;;7.28;6.30;;;;;;;;;;5075065;28;20044;-66
2021/12/16 14:33:09;;;;;;;7.93;5.45;;;;;;;;;;5075628;28;20057;-67
2021/12/16 14:35:12;;;;;;;5.75;4.00;;;;;;;;;;5075632;28;20037;-66
2021/12/16 14:38:01;;;;;;;5.10;4.50;;;;;;;;;;5075531;28;20041;-68
2021/12/16 14:40:39;;;;;;;5.82;5.07;;;;;;;;;;5075482;28;20144;-66
2021/12/16 14:43:24;;;;;;;6.10;4.90;;;;;;;;;;5075555;28;20037;-67
2021/12/16 14:45:57;;;;;;;5.22;4.80;;;;;;;;;;5074033;28;20040;-66
2021/12/16 14:51:07;;;;;;;4.43;4.03;;;;;;;;;;5075089;28;20525;-66
2021/12/16 14:53:33;;;;;;;4.55;3.42;;;;;;;;;;5074970;28;20052;-66
2021/12/16 14:56:04;;;;;;;4.28;3.35;;;;;;;;;;5073472;28;20443;-67
2021/12/16 14:58:30;;;;;;;4.32;3.92;;;;;;;;;;5074806;28;20048;-67
2021/12/16 15:01:18;;;;;;;5.07;4.10;;;;;;;;;;5075429;28;20033;-67
2021/12/16 15:03:46;;;;;;;5.97;4.63;;;;;;;;;;5075399;28;20036;-66
2021/12/16 15:06:37;;;;;;;3.38;3.08;;;;;;;;;;5074807;28;20139;-63
2021/12/16 15:09:12;;;;;;;4.55;4.10;;;;;;;;;;5074243;28;20082;-63
2021/12/16 15:12:07;;;;;;;6.18;4.53;;;;;;;;;;5073599;28;20186;-63
2021/12/16 15:39:24;;;;;;;4.60;3.55;;;;;;;;;;5074808;28;20044;-62
2021/12/16 15:44:45;;;;;;;5.28;4.72;;;;;;;;;;5074187;28;20505;-62
2021/12/16 15:47:10;;;;;;;5.65;4.60;;;;;;;;;;5072519;28;20367;-62
2021/12/16 15:49:36;;;;;;;18.13;7.38;;;;;;;;;;5073831;28;20052;-62
2021/12/16 15:52:02;;;;;;;12.52;7.07;;;;;;;;;;5074073;28;20029;-62
2021/12/16 15:54:32;;;;;;;5.10;4.55;;;;;;;;;;5073947;28;20044;-62
2021/12/16 15:56:58;;;;;;;4.75;4.35;;;;;;;;;;5073813;28;20040;-62
2021/12/16 15:59:28;;;;;;;4.68;3.47;;;;;;;;;;5074146;28;20364;-62
2021/12/16 16:01:55;;;;;;;6.70;4.28;;;;;;;;;;5073945;28;20108;-62
2021/12/16 16:04:22;;;;;;;6.75;4.78;;;;;;;;;;5073718;28;20086;-62
2021/12/16 16:06:50;;;;;;;5.45;4.55;;;;;;;;;;5055946;28;20060;-62
2021/12/16 16:09:16;;;;;;;17.25;7.22;;;;;;;;;;5072693;28;20054;-62
2021/12/16 16:11:45;;;;;;;6.57;4.15;;;;;;;;;;5073612;28;20478;-62
2021/12/16 16:14:10;;;;;;;4.13;3.72;;;;;;;;;;5073372;28;20024;-60
2021/12/16 16:16:43;;;;;;;4.72;4.07;;;;;;;;;;5055679;28;20036;-62
2021/12/16 16:19:10;;;;;;;5.47;4.97;;;;;;;;;;5073009;28;20379;-62
2021/12/16 16:21:38;;;;;;;6.18;4.70;;;;;;;;;;5070606;28;20020;-62
2021/12/16 16:24:06;;;;;;;3.88;3.45;;;;;;;;;;5069331;28;20513;-62
2021/12/16 16:26:32;;;;;;;3.63;3.30;;;;;;;;;;5072552;28;20502;-62
2021/12/16 16:29:03;;;;;;;4.25;3.78;;;;;;;;;;5072599;28;20094;-62
2021/12/16 16:31:31;;;;;;;5.43;4.80;;;;;;;;;;5072550;28;20068;-62
2021/12/16 16:33:57;;;;;;;3.78;3.42;;;;;;;;;;5072655;28;20036;-62
2021/12/16 16:36:25;;;;;;;6.28;4.82;;;;;;;;;;5070018;28;20039;-62
2021/12/16 16:38:52;;;;;;;6.15;4.43;;;;;;;;;;5071692;28;20036;-62
2021/12/16 16:41:19;;;;;;;5.57;4.13;;;;;;;;;;5068032;28;20473;-62
2021/12/16 16:43:56;;;;;;;4.43;3.67;;;;;;;;;;5065455;28;20406;-62
2021/12/16 16:46:29;;;;;;;4.97;3.95;;;;;;;;;;5067491;28;20052;-62
2021/12/16 16:49:05;;;;;;;4.60;4.18;;;;;;;;;;5067488;28;20052;-62
2021/12/16 16:51:40;;;;;;;4.40;4.00;;;;;;;;;;5071507;28;20086;-63
2021/12/16 16:54:12;;;;;;;5.10;4.00;;;;;;;;;;5072650;28;20123;-62
2021/12/16 16:56:46;;;;;;;6.28;4.53;;;;;;;;;;5072053;28;20033;-61
2021/12/16 16:59:18;;;;;;;5.35;3.97;;;;;;;;;;5068411;28;20157;-75
2021/12/16 17:01:43;;;;;;;4.45;3.97;;;;;;;;;;5067735;28;20057;-66
2021/12/16 17:04:11;;;;;;;4.45;3.33;;;;;;;;;;5070616;28;20033;-66
2021/12/16 17:06:39;;;;;;;3.40;3.08;;;;;;;;;;5071293;28;20028;-66
2021/12/16 17:09:04;;;;;;;3.80;3.50;;;;;;;;;;5071824;28;20074;-66
2021/12/16 17:11:31;;;;;;;3.63;3.25;;;;;;;;;;5067741;28;20044;-66
2021/12/16 17:19:20;;;;;;;2.75;2.55;;;;;;;;;;5071468;28;20246;-66
2021/12/16 17:21:49;;;;;;;3.35;3.05;;;;;;;;;;5072291;28;20032;-66
2021/12/16 17:24:25;;;;;;;3.03;2.75;;;;;;;;;;5070127;28;20056;-62
2021/12/16 17:26:59;;;;;;;3.35;3.05;;;;;;;;;;5069493;28;20501;-62
2021/12/16 17:29:47;;;;;;;3.83;3.05;;;;;;;;;;5071693;28;20086;-62
2021/12/16 17:32:15;;;;;;;3.63;3.30;;;;;;;;;;5071758;28;20119;-62
2021/12/16 17:34:42;;;;;;;3.95;3.53;;;;;;;;;;5071127;28;20107;-63
2021/12/16 17:37:17;;;;;;;4.85;3.85;;;;;;;;;;5068089;28;20052;-62
2021/12/16 17:39:49;;;;;;;3.70;3.30;;;;;;;;;;5066308;28;20036;-63
2021/12/16 17:42:16;;;;;;;3.47;3.17;;;;;;;;;;5068436;28;20083;-62
2021/12/16 17:44:44;;;;;;;4.95;4.07;;;;;;;;;;5070465;28;20059;-60
2021/12/16 17:47:13;;;;;;;5.30;4.05;;;;;;;;;;5071436;28;20041;-63
2021/12/16 17:49:39;;;;;;;4.85;3.20;;;;;;;;;;5071231;28;20028;-62
2021/12/16 17:52:06;;;;;;;3.20;2.88;;;;;;;;;;5071930;28;20053;-62
2021/12/16 17:54:39;;;;;;;3.88;2.78;;;;;;;;;;5072036;28;20024;-62
2021/12/16 17:57:04;;;;;;;3.25;3.00;;;;;;;;;;5074203;28;20040;-62
2021/12/16 17:59:32;;;;;;;4.35;3.95;;;;;;;;;;5074899;28;20136;-62
2021/12/16 18:01:57;;;;;;;4.35;3.70;;;;;;;;;;5076161;28;20032;-62
2021/12/16 18:04:23;;;;;;;4.13;3.70;;;;;;;;;;5076188;28;20397;-62
2021/12/16 18:06:59;;;;;;;3.90;3.60;;;;;;;;;;5071808;28;20491;-62
2021/12/16 18:09:29;;;;;;;4.15;3.38;;;;;;;;;;5068406;28;20044;-62
2021/12/16 18:11:58;;;;;;;4.97;4.15;;;;;;;;;;5068929;28;20127;-62
2021/12/16 18:14:35;;;;;;;4.63;3.42;;;;;;;;;;5067686;28;20021;-62
2021/12/16 18:17:05;;;;;;;6.05;3.80;;;;;;;;;;5071567;28;20036;-62
2021/12/16 18:19:30;;;;;;;5.47;4.13;;;;;;;;;;5072589;28;20082;-62
2021/12/16 18:21:57;;;;;;;4.93;4.07;;;;;;;;;;5075142;28;20263;-62
2021/12/16 18:24:32;;;;;;;4.15;3.35;;;;;;;;;;5071577;28;20053;-63
2021/12/16 18:26:58;;;;;;;4.15;3.85;;;;;;;;;;5071189;28;20051;-63
2021/12/16 18:29:23;;;;;;;4.82;3.80;;;;;;;;;;5074794;28;20127;-62
2021/12/16 18:31:49;;;;;;;4.68;4.10;;;;;;;;;;5074992;28;20119;-62
2021/12/16 18:34:19;;;;;;;5.45;4.30;;;;;;;;;;5074422;28;20037;-62